Time;durP1;ratioP1;P1;durP2;ratioP2;P2;SDS_P1;SDS_P2;PMS_P1;PMS_P2;Temp;Humidity;BMP_temperature;BMP_pressure;BME280_temperature;BME280_humidity;BME280_pressure;Samples;Min_cycle;Max_cycle;Signal;HPM_P1;HPM_P2
2021/12/13 00:00:20;;;;;;;2.73;2.10;;;;;;;-0.07;100.00;97673.94;5028228;28;20044;-68
2021/12/13 00:02:55;;;;;;;4.87;2.80;;;;;;;-0.04;100.00;97679.03;5027535;28;20049;-67
2021/12/13 00:05:29;;;;;;;5.97;2.40;;;;;;;-0.00;100.00;97688.41;5028707;28;20561;-68
2021/12/13 00:07:57;;;;;;;;;;;;;;;-0.04;100.00;97687.66;5029048;28;20076;-68
2021/12/13 00:10:30;;;;;;;2.97;2.00;;;;;;;-0.08;100.00;97682.59;5027733;28;20351;-67
2021/12/13 00:13:02;;;;;;;3.83;2.03;;;;;;;-0.02;100.00;97679.88;5010152;28;20124;-67
2021/12/13 00:15:34;;;;;;;4.70;2.50;;;;;;;-0.04;100.00;97681.63;5028090;28;20049;-67
2021/12/13 00:18:04;;;;;;;3.47;2.47;;;;;;;-0.09;100.00;97678.31;5028014;28;20041;-67
2021/12/13 00:20:37;;;;;;;6.47;2.77;;;;;;;-0.05;100.00;97675.63;5027905;28;20048;-66
2021/12/13 00:23:13;;;;;;;5.70;3.38;;;;;;;-0.12;100.00;97670.66;5027604;28;20041;-60
2021/12/13 00:25:44;;;;;;;4.33;2.13;;;;;;;-0.16;100.00;97676.78;5027654;28;20504;-60
2021/12/13 00:28:15;;;;;;;5.87;3.03;;;;;;;-0.14;100.00;97681.00;5028593;28;20128;-60
2021/12/13 00:30:53;;;;;;;5.23;2.60;;;;;;;-0.18;100.00;97691.44;5026990;28;20057;-61
2021/12/13 00:33:32;;;;;;;4.73;2.60;;;;;;;-0.19;100.00;97677.69;5027430;28;20071;-60
2021/12/13 00:36:06;;;;;;;4.40;2.40;;;;;;;-0.20;100.00;97683.75;5027367;28;20060;-61
2021/12/13 00:38:39;;;;;;;5.80;3.17;;;;;;;-0.12;100.00;97687.00;5027571;28;20037;-60
2021/12/13 00:41:10;;;;;;;;;;;;;;;-0.02;100.00;97700.53;5011936;28;20045;-60
2021/12/13 00:43:41;;;;;;;4.17;2.77;;;;;;;-0.08;100.00;97696.34;5027469;28;19951;-61
2021/12/13 00:46:16;;;;;;;4.93;2.57;;;;;;;-0.12;100.00;97699.91;5027547;28;20046;-61
2021/12/13 00:48:47;;;;;;;3.57;2.50;;;;;;;-0.10;100.00;97689.53;5026589;28;20120;-60
2021/12/13 00:51:26;;;;;;;4.47;2.47;;;;;;;-0.08;100.00;97695.50;5026398;28;20046;-61
2021/12/13 00:53:56;;;;;;;3.87;2.30;;;;;;;-0.09;100.00;97693.81;5028133;28;20391;-61
2021/12/13 00:57:00;;;;;;;5.17;3.07;;;;;;;-0.01;100.00;97697.03;5027966;28;20091;-60
2021/12/13 00:59:32;;;;;;;3.70;2.40;;;;;;;-0.12;100.00;97699.91;5027584;28;20151;-61
2021/12/13 01:02:04;;;;;;;5.23;3.10;;;;;;;-0.07;100.00;97704.94;5010032;28;20052;-61
2021/12/13 01:04:55;;;;;;;3.72;2.65;;;;;;;-0.04;100.00;97700.56;5027499;28;20439;-61
2021/12/13 01:07:55;;;;;;;4.43;2.40;;;;;;;-0.09;100.00;97704.97;5028230;28;20097;-61
2021/12/13 01:11:08;;;;;;;6.60;3.77;;;;;;;-0.05;100.00;97705.75;5026455;28;20095;-61
2021/12/13 01:13:41;;;;;;;6.87;3.50;;;;;;;-0.11;100.00;97699.00;5024694;28;20056;-61
2021/12/13 01:16:19;;;;;;;4.80;2.97;;;;;;;-0.09;100.00;97694.63;5027378;28;20132;-62
2021/12/13 01:19:13;;;;;;;5.00;3.10;;;;;;;-0.06;100.00;97692.00;5026612;28;20104;-61
2021/12/13 01:21:53;;;;;;;;;;;;;;;-0.12;100.00;97697.31;5026900;28;20397;-60
2021/12/13 01:24:42;;;;;;;4.90;2.53;;;;;;;0.06;100.00;97690.84;5027918;28;19921;-62
2021/12/13 01:27:09;;;;;;;8.33;3.83;;;;;;;-0.06;100.00;97689.41;5027190;28;20405;-60
2021/12/13 01:29:38;;;;;;;5.17;3.00;;;;;;;-0.18;100.00;97687.13;5027371;28;20041;-62
2021/12/13 01:32:08;;;;;;;5.13;2.47;;;;;;;-0.27;100.00;97691.69;5027308;28;20040;-61
2021/12/13 01:34:38;;;;;;;4.27;2.60;;;;;;;-0.23;100.00;97686.41;5009760;28;20070;-62
2021/12/13 01:37:12;;;;;;;5.33;2.87;;;;;;;-0.28;100.00;97685.66;5026182;28;20144;-61
2021/12/13 01:39:42;;;;;;;7.03;3.57;;;;;;;-0.23;100.00;97686.41;5026926;28;20077;-60
2021/12/13 01:42:13;;;;;;;6.70;3.63;;;;;;;-0.19;100.00;97688.03;5009065;28;20046;-60
2021/12/13 01:44:45;;;;;;;6.70;3.50;;;;;;;-0.23;100.00;97688.13;5027782;28;20466;-60
2021/12/13 01:47:15;;;;;;;4.67;3.07;;;;;;;-0.29;100.00;97693.44;5012463;28;20045;-60
2021/12/13 01:49:45;;;;;;;6.17;3.33;;;;;;;-0.25;100.00;97692.50;5030209;28;20125;-61
2021/12/13 01:52:21;;;;;;;4.03;3.17;;;;;;;-0.32;100.00;97689.19;5030461;28;20041;-61
2021/12/13 01:54:48;;;;;;;4.80;3.10;;;;;;;-0.33;100.00;97690.09;5029960;28;20049;-60
2021/12/13 01:57:26;;;;;;;6.97;3.50;;;;;;;-0.32;100.00;97691.78;5028910;28;20051;-61
2021/12/13 02:00:07;;;;;;;5.83;2.47;;;;;;;-0.30;100.00;97694.31;5029210;28;20045;-61
2021/12/13 02:02:41;;;;;;;5.13;3.30;;;;;;;-0.33;100.00;97692.69;5031136;28;20497;-61
2021/12/13 02:05:13;;;;;;;5.90;3.60;;;;;;;-0.30;100.00;97699.50;5031270;28;20072;-61
2021/12/13 02:07:44;;;;;;;4.93;3.53;;;;;;;-0.26;100.00;97704.56;5029727;28;20044;-61
2021/12/13 02:10:17;;;;;;;5.57;3.23;;;;;;;-0.32;100.00;97694.38;5030752;28;20041;-61
2021/12/13 02:12:46;;;;;;;6.43;3.30;;;;;;;-0.31;100.00;97698.66;5030114;28;20505;-61
2021/12/13 02:18:00;;;;;;;7.87;3.80;;;;;;;-0.33;100.00;97710.75;5030230;28;20116;-64
2021/12/13 02:20:32;;;;;;;6.37;3.70;;;;;;;-0.36;100.00;97705.66;5028790;28;20037;-63
2021/12/13 02:23:02;;;;;;;7.43;3.77;;;;;;;-0.36;100.00;97708.22;5013820;28;20053;-62
2021/12/13 02:25:32;;;;;;;9.97;4.53;;;;;;;-0.38;100.00;97716.91;5028844;28;20446;-62
2021/12/13 02:28:04;;;;;;;6.40;3.23;;;;;;;-0.39;100.00;97723.78;5029813;28;20065;-63
2021/12/13 02:30:37;;;;;;;7.37;3.50;;;;;;;-0.46;100.00;97717.06;5029897;28;20049;-63
2021/12/13 02:33:06;;;;;;;6.93;4.60;;;;;;;-0.42;100.00;97721.31;5029816;28;20065;-63
2021/12/13 02:35:38;;;;;;;10.37;4.30;;;;;;;-0.36;100.00;97715.16;5029813;28;20049;-62
2021/12/13 02:38:08;;;;;;;9.80;4.90;;;;;;;-0.39;100.00;97722.97;5031145;28;20049;-62
2021/12/13 02:40:36;;;;;;;9.00;3.50;;;;;;;-0.42;100.00;97720.44;5031667;28;20128;-62
2021/12/13 02:43:05;;;;;;;6.50;3.60;;;;;;;-0.41;100.00;97720.41;5032064;28;20045;-62
2021/12/13 02:45:42;;;;;;;9.50;3.77;;;;;;;-0.42;100.00;97723.03;5032214;28;20037;-61
2021/12/13 02:48:14;;;;;;;9.30;4.57;;;;;;;-0.41;100.00;97728.16;5031376;28;20438;-62
2021/12/13 02:50:51;;;;;;;9.13;4.50;;;;;;;-0.40;100.00;97728.97;5031104;28;20053;-61
2021/12/13 02:53:23;;;;;;;7.60;3.70;;;;;;;-0.48;100.00;97736.91;5028863;28;20069;-61
2021/12/13 02:55:50;;;;;;;7.43;4.03;;;;;;;-0.49;100.00;97737.81;5029952;28;20049;-61
2021/12/13 02:58:24;;;;;;;9.40;4.67;;;;;;;-0.43;100.00;97740.22;5013100;28;20055;-61
2021/12/13 03:00:56;;;;;;;7.03;3.27;;;;;;;-0.61;100.00;97735.47;5030661;28;20045;-61
2021/12/13 03:03:30;;;;;;;5.32;2.80;;;;;;;-0.54;100.00;97737.03;5030249;28;20053;-61
2021/12/13 03:06:00;;;;;;;2.70;1.80;;;;;;;-0.59;100.00;97751.78;5030013;28;20124;-61
2021/12/13 03:08:35;;;;;;;4.53;2.47;;;;;;;-0.51;100.00;97746.44;5031273;28;20123;-61
2021/12/13 03:11:07;;;;;;;4.53;2.47;;;;;;;-0.50;100.00;97754.16;5031583;28;20420;-62
2021/12/13 03:13:34;;;;;;;4.07;2.30;;;;;;;-0.51;100.00;97749.03;5014179;28;20076;-62
2021/12/13 03:16:05;;;;;;;4.07;1.97;;;;;;;-0.53;100.00;97749.09;5031727;28;20060;-61
2021/12/13 03:18:45;;;;;;;4.80;2.13;;;;;;;-0.56;100.00;97738.81;5031616;28;20116;-61
2021/12/13 03:21:25;;;;;;;2.67;1.63;;;;;;;-0.59;100.00;97736.31;5029628;28;20038;-62
2021/12/13 03:24:19;;;;;;;3.80;1.70;;;;;;;-0.62;100.00;97740.66;5029594;28;20069;-61
2021/12/13 03:27:10;;;;;;;3.00;1.52;;;;;;;-0.65;100.00;97738.19;5029941;28;20133;-61
2021/12/13 03:29:54;;;;;;;2.60;1.83;;;;;;;-0.66;100.00;97732.16;5030133;28;20042;-62
2021/12/13 03:32:22;;;;;;;4.10;2.10;;;;;;;-0.63;100.00;97736.41;5029521;28;20056;-61
2021/12/13 03:35:03;;;;;;;3.87;2.23;;;;;;;-0.63;100.00;97737.25;5029697;28;20081;-61
2021/12/13 03:37:30;;;;;;;3.67;2.27;;;;;;;-0.69;100.00;97732.22;4990166;28;20039;-61
2021/12/13 03:40:02;;;;;;;3.27;1.60;;;;;;;-0.67;100.00;97743.38;4990702;28;20146;-62
2021/12/13 03:42:31;;;;;;;2.27;1.50;;;;;;;-0.75;100.00;97726.34;4990657;28;20041;-62
2021/12/13 03:45:03;;;;;;;2.10;1.30;;;;;;;-0.76;100.00;97720.34;4990484;28;20048;-61
2021/12/13 03:47:36;;;;;;;2.83;2.30;;;;;;;-0.74;100.00;97721.16;4990665;28;20048;-62
2021/12/13 03:50:09;;;;;;;4.18;1.88;;;;;;;-0.73;100.00;97729.72;4989740;28;20494;-61
2021/12/13 03:52:39;;;;;;;3.33;1.52;;;;;;;-0.69;100.00;97724.47;4990586;28;20042;-63
2021/12/13 03:55:10;;;;;;;2.33;1.80;;;;;;;-0.72;100.00;97727.13;4989883;28;20048;-61
2021/12/13 03:57:44;;;;;;;2.27;1.57;;;;;;;-0.76;100.00;97733.22;4987975;28;20479;-61
2021/12/13 04:00:12;;;;;;;;;;;;;;;-0.74;100.00;97726.31;4990002;28;20422;-61
2021/12/13 04:02:40;;;;;;;2.70;1.60;;;;;;;-0.72;100.00;97723.72;4989937;28;19965;-62
2021/12/13 04:05:13;;;;;;;5.47;2.67;;;;;;;-0.74;100.00;97728.03;4987444;28;20039;-63
2021/12/13 04:07:43;;;;;;;3.85;2.30;;;;;;;-0.74;100.00;97726.31;4989602;28;20042;-61
2021/12/13 04:10:15;;;;;;;3.67;2.40;;;;;;;-0.72;100.00;97726.28;4989559;28;20105;-62
2021/12/13 04:12:47;;;;;;;6.23;3.43;;;;;;;-0.73;100.00;97729.72;4989422;28;20046;-61
2021/12/13 04:15:20;;;;;;;3.93;3.03;;;;;;;-0.81;100.00;97735.06;4989675;28;20039;-63
2021/12/13 04:17:59;;;;;;;;;;;;;;;-0.86;100.00;97721.44;4990289;28;20062;-61
2021/12/13 04:20:30;;;;;;;3.20;1.97;;;;;;;-0.78;100.00;97727.28;4989153;28;20374;-61
2021/12/13 04:23:04;;;;;;;2.87;1.77;;;;;;;-0.87;100.00;97732.63;4989208;28;20495;-62
2021/12/13 04:25:38;;;;;;;4.30;2.63;;;;;;;-0.89;100.00;97724.06;4990414;28;20074;-62
2021/12/13 04:28:09;;;;;;;3.53;2.07;;;;;;;-0.95;100.00;97726.78;4990669;28;20130;-62
2021/12/13 04:30:40;;;;;;;6.37;3.57;;;;;;;-0.94;100.00;97733.63;4988499;28;20038;-62
2021/12/13 04:33:10;;;;;;;3.97;2.00;;;;;;;-0.93;100.00;97725.03;4989558;28;20042;-62
2021/12/13 04:35:38;;;;;;;2.77;1.30;;;;;;;-1.04;100.00;97737.28;5000922;28;20831;-62
2021/12/13 04:38:07;;;;;;;4.73;2.07;;;;;;;-1.01;100.00;97731.22;5029535;28;20050;-61
2021/12/13 04:40:39;;;;;;;2.97;1.80;;;;;;;-1.04;100.00;97718.38;5029933;28;20405;-61
2021/12/13 04:43:11;;;;;;;5.33;2.40;;;;;;;-1.00;100.00;97720.88;5030367;28;20041;-62
2021/12/13 04:45:41;;;;;;;5.70;3.60;;;;;;;-1.04;100.00;97718.38;5029031;28;20045;-62
2021/12/13 04:48:11;;;;;;;4.10;2.37;;;;;;;-0.99;100.00;97732.88;5029127;28;20137;-62
2021/12/13 04:50:44;;;;;;;3.93;2.60;;;;;;;-1.06;100.00;97733.88;5028183;28;20045;-62
2021/12/13 04:53:17;;;;;;;6.95;2.40;;;;;;;-1.06;100.00;97744.19;5011033;28;20113;-62
2021/12/13 04:55:46;;;;;;;7.53;3.20;;;;;;;-1.07;100.00;97739.94;5027955;28;20095;-62
2021/12/13 04:58:15;;;;;;;4.47;2.90;;;;;;;-1.07;100.00;97741.66;5029758;28;20065;-62
2021/12/13 05:00:45;;;;;;;3.83;2.60;;;;;;;-1.03;100.00;97753.59;5026958;28;20453;-62
2021/12/13 05:03:15;;;;;;;5.03;3.33;;;;;;;-1.08;100.00;97742.53;5027080;28;20116;-62
2021/12/13 05:05:43;;;;;;;5.00;2.60;;;;;;;-1.13;100.00;97754.69;5011210;28;20140;-61
2021/12/13 05:08:14;;;;;;;4.83;2.83;;;;;;;-1.14;100.00;97752.97;5027327;28;20555;-61
2021/12/13 05:10:46;;;;;;;3.80;2.37;;;;;;;-1.17;100.00;97756.47;5009449;28;20099;-63
2021/12/13 05:13:17;;;;;;;4.53;2.63;;;;;;;-1.21;100.00;97767.72;5027027;28;20073;-62
2021/12/13 05:15:53;;;;;;;5.87;3.00;;;;;;;-1.16;100.00;97760.72;5027344;28;20051;-62
2021/12/13 05:18:29;;;;;;;5.67;2.70;;;;;;;-1.15;100.00;97761.59;5027300;28;20408;-61
2021/12/13 05:21:02;;;;;;;6.90;3.40;;;;;;;-1.14;100.00;97764.13;5029721;28;20038;-61
2021/12/13 05:23:30;;;;;;;5.40;2.92;;;;;;;-1.16;100.00;97765.06;5031067;28;20311;-62
2021/12/13 05:26:00;;;;;;;4.47;2.40;;;;;;;-1.28;100.00;97776.44;5031340;28;20045;-62
2021/12/13 05:28:31;;;;;;;6.47;2.83;;;;;;;-1.22;100.00;97771.16;5032310;28;20049;-62
2021/12/13 05:31:09;;;;;;;8.67;3.17;;;;;;;-1.28;100.00;97768.69;5032940;28;20038;-62
2021/12/13 05:33:39;;;;;;;7.07;3.20;;;;;;;-1.28;100.00;97780.75;5031820;28;20039;-62
2021/12/13 05:36:09;;;;;;;12.60;4.47;;;;;;;-1.24;100.00;97775.50;5031894;28;20387;-62
2021/12/13 05:38:41;;;;;;;5.97;3.47;;;;;;;-1.21;100.00;97767.72;5031850;28;20037;-61
2021/12/13 05:41:12;;;;;;;5.83;2.97;;;;;;;-1.26;100.00;97782.41;5031665;28;20046;-61
2021/12/13 05:43:43;;;;;;;3.80;2.30;;;;;;;-1.29;100.00;97779.91;5031670;28;20045;-63
2021/12/13 05:46:14;;;;;;;7.33;3.30;;;;;;;-1.31;100.00;97776.47;5031355;28;20053;-63
2021/12/13 05:48:47;;;;;;;4.57;3.40;;;;;;;-1.35;100.00;97785.16;5030708;28;20069;-63
2021/12/13 05:51:24;;;;;;;6.23;2.93;;;;;;;-1.33;100.00;97780.84;5030257;28;20051;-63
2021/12/13 05:53:59;;;;;;;8.83;5.00;;;;;;;-1.35;100.00;97786.91;5031010;28;20072;-62
2021/12/13 05:56:29;;;;;;;7.63;4.20;;;;;;;-1.31;100.00;97781.63;5030589;28;20053;-63
2021/12/13 05:59:09;;;;;;;5.67;3.13;;;;;;;-1.34;100.00;97797.19;5028947;28;20168;-62
2021/12/13 06:01:43;;;;;;;7.70;3.80;;;;;;;-1.40;100.00;97797.28;5030043;28;20073;-62
2021/12/13 06:04:13;;;;;;;7.30;3.70;;;;;;;-1.44;100.00;97790.50;5030872;28;20073;-62
2021/12/13 06:06:46;;;;;;;8.67;3.10;;;;;;;-1.48;100.00;97802.56;5013327;28;20060;-62
2021/12/13 06:09:41;;;;;;;7.85;3.65;;;;;;;-1.45;100.00;97796.53;5028616;28;20053;-61
2021/12/13 06:12:12;;;;;;;10.37;4.70;;;;;;;-1.46;100.00;97791.41;5029980;28;20141;-61
2021/12/13 06:14:41;;;;;;;8.33;4.30;;;;;;;-1.48;100.00;97800.88;5029649;28;20049;-61
2021/12/13 06:17:14;;;;;;;9.17;4.10;;;;;;;-1.50;100.00;97794.91;5029402;28;20049;-63
2021/12/13 06:19:48;;;;;;;10.77;5.03;;;;;;;-1.50;100.00;97800.06;5030303;28;20215;-60
2021/12/13 06:22:20;;;;;;;8.87;4.33;;;;;;;-1.56;100.00;97812.16;5029858;28;20051;-60
2021/12/13 06:24:56;;;;;;;9.47;4.73;;;;;;;-1.55;100.00;97802.72;5030141;28;20045;-61
2021/12/13 06:27:25;;;;;;;8.90;4.17;;;;;;;-1.62;100.00;97799.41;5028590;28;20045;-61
2021/12/13 06:30:05;;;;;;;10.43;4.57;;;;;;;-1.64;100.00;97808.88;5029260;28;20049;-61
2021/12/13 06:32:40;;;;;;;9.70;4.93;;;;;;;-1.63;100.00;97814.88;5028823;28;20077;-60
2021/12/13 06:35:37;;;;;;;8.70;4.37;;;;;;;-1.63;100.00;97815.72;5028692;28;20045;-61
2021/12/13 06:38:28;;;;;;;7.43;4.33;;;;;;;-1.62;100.00;97821.72;5028058;28;20071;-62
2021/12/13 06:40:58;;;;;;;12.40;5.07;;;;;;;-1.55;100.00;97818.19;5029293;28;20055;-61
2021/12/13 06:43:29;;;;;;;12.47;5.90;;;;;;;-1.49;100.00;97823.19;5027682;28;20105;-62
2021/12/13 06:45:58;;;;;;;19.03;5.83;;;;;;;-1.45;100.00;97822.28;5029026;28;20045;-62
2021/12/13 06:48:39;;;;;;;14.67;6.07;;;;;;;-1.52;100.00;97828.44;5028947;28;20133;-62
2021/12/13 06:51:09;;;;;;;12.60;4.97;;;;;;;-1.63;100.00;97826.00;5029891;28;20068;-62
2021/12/13 06:53:37;;;;;;;20.20;9.23;;;;;;;-1.56;100.00;97821.63;5029455;28;20060;-62
2021/12/13 06:56:23;;;;;;;16.53;6.37;;;;;;;-1.54;100.00;97830.16;5029793;28;20136;-62
2021/12/13 06:58:51;;;;;;;10.90;5.03;;;;;;;-1.60;100.00;97825.16;5029377;28;20053;-66
2021/12/13 07:01:20;;;;;;;16.93;7.20;;;;;;;-1.54;100.00;97827.59;5027577;28;20103;-62
2021/12/13 07:03:54;;;;;;;18.27;8.90;;;;;;;-1.50;100.00;97830.97;5029104;28;20041;-62
2021/12/13 07:06:21;;;;;;;16.50;6.93;;;;;;;-1.58;100.00;97834.53;5029145;28;20042;-62
2021/12/13 07:09:04;;;;;;;13.50;7.13;;;;;;;-1.58;100.00;97833.69;5012153;28;20567;-62
2021/12/13 07:11:47;;;;;;;9.75;5.18;;;;;;;-1.64;100.00;97833.78;5010424;28;20061;-65
2021/12/13 07:14:17;;;;;;;11.35;5.55;;;;;;;-1.56;100.00;97844.81;5029257;28;20056;-62
2021/12/13 07:16:50;;;;;;;12.30;6.17;;;;;;;-1.53;100.00;97833.59;5029896;28;20041;-62
2021/12/13 07:19:22;;;;;;;10.10;5.38;;;;;;;-1.45;100.00;97832.59;5029838;28;20127;-63
2021/12/13 07:21:54;;;;;;;8.90;4.67;;;;;;;-1.50;100.00;97847.28;5029918;28;20053;-62
2021/12/13 07:24:32;;;;;;;11.55;5.78;;;;;;;-1.41;100.00;97846.28;5012388;28;20052;-62
2021/12/13 07:27:04;;;;;;;12.67;5.97;;;;;;;-1.50;100.00;97847.28;5029823;28;20042;-62
2021/12/13 07:29:38;;;;;;;10.63;5.57;;;;;;;-1.53;100.00;97857.63;5029551;28;20061;-62
2021/12/13 07:32:11;;;;;;;11.80;4.83;;;;;;;-1.46;100.00;97851.50;5030441;28;20069;-62
2021/12/13 07:34:54;;;;;;;11.82;6.25;;;;;;;-1.48;100.00;97861.00;5029318;28;20068;-62
2021/12/13 07:37:40;;;;;;;12.50;4.77;;;;;;;-1.50;100.00;97859.31;5009977;28;20112;-64
2021/12/13 07:40:35;;;;;;;12.87;5.57;;;;;;;-1.47;100.00;97852.38;5009256;28;20038;-62
2021/12/13 07:43:08;;;;;;;13.00;5.33;;;;;;;-1.50;100.00;97859.31;5009336;28;20034;-61
2021/12/13 07:45:42;;;;;;;10.93;4.60;;;;;;;-1.54;100.00;97858.50;5009789;28;20073;-62
2021/12/13 07:48:14;;;;;;;16.67;7.60;;;;;;;-1.40;100.00;97859.13;5041920;28;20046;-62
2021/12/13 07:50:44;;;;;;;11.53;6.20;;;;;;;-1.54;100.00;97858.50;5008294;28;20073;-61
2021/12/13 07:53:16;;;;;;;16.13;6.83;;;;;;;-1.49;100.00;97858.44;5008481;28;20081;-62
2021/12/13 07:55:47;;;;;;;14.70;6.37;;;;;;;-1.53;100.00;97849.91;5009067;28;20045;-61
2021/12/13 07:58:18;;;;;;;13.63;5.27;;;;;;;-1.60;100.00;97854.31;5010374;28;20045;-62
2021/12/13 08:00:47;;;;;;;16.03;7.93;;;;;;;-1.57;100.00;97866.28;5010595;28;20161;-60
2021/12/13 08:03:24;;;;;;;14.23;7.30;;;;;;;-1.49;100.00;97869.56;5010188;28;20137;-62
2021/12/13 08:05:53;;;;;;;17.17;6.93;;;;;;;-1.50;100.00;97870.47;5009998;28;20084;-62
2021/12/13 08:08:25;;;;;;;15.80;7.43;;;;;;;-1.44;100.00;97872.94;5009050;28;20050;-62
2021/12/13 08:10:56;;;;;;;16.57;5.80;;;;;;;-1.57;100.00;97876.59;5009858;28;20394;-63
2021/12/13 08:13:26;;;;;;;12.73;6.57;;;;;;;-1.48;100.00;97873.88;5009598;28;20068;-62
2021/12/13 08:15:56;;;;;;;13.67;6.93;;;;;;;-1.49;100.00;97876.47;5009133;28;20398;-61
2021/12/13 08:18:28;;;;;;;15.97;6.80;;;;;;;-1.48;100.00;97881.59;5009293;28;20042;-61
2021/12/13 08:20:58;;;;;;;13.80;6.60;;;;;;;-1.35;100.00;97875.34;5011175;28;20214;-62
2021/12/13 08:23:29;;;;;;;13.20;6.03;;;;;;;-1.46;100.00;97885.00;5010783;28;20042;-61
2021/12/13 08:26:01;;;;;;;16.10;6.70;;;;;;;-1.44;100.00;97882.41;5009641;28;20050;-69
2021/12/13 08:28:38;;;;;;;13.73;5.23;;;;;;;-1.47;100.00;97883.31;5009225;28;20441;-62
2021/12/13 08:31:08;;;;;;;11.63;5.13;;;;;;;-1.52;100.00;97891.09;5009218;28;20042;-63
2021/12/13 08:33:42;;;;;;;15.87;6.83;;;;;;;-1.34;100.00;97883.94;5008873;28;20045;-63
2021/12/13 08:36:13;;;;;;;19.73;9.03;;;;;;;-1.30;100.00;97891.63;5018068;28;20056;-62
2021/12/13 08:38:48;;;;;;;17.63;7.80;;;;;;;-1.45;100.00;97894.44;5027845;28;20033;-65
2021/12/13 08:41:26;;;;;;;20.03;9.27;;;;;;;-1.34;100.00;97889.09;5011892;28;20494;-78
2021/12/13 08:43:57;;;;;;;17.20;7.83;;;;;;;-1.36;100.00;97891.69;5010293;28;20041;-63
2021/12/13 08:46:36;;;;;;;22.13;9.43;;;;;;;-1.33;100.00;97885.63;5028842;28;20049;-62
2021/12/13 08:49:17;;;;;;;15.57;7.90;;;;;;;-1.36;100.00;97885.69;5029119;28;20140;-62
2021/12/13 08:51:54;;;;;;;21.30;8.30;;;;;;;-1.36;100.00;97883.97;5029455;28;20041;-62
2021/12/13 08:54:21;;;;;;;16.47;8.00;;;;;;;-1.42;100.00;97878.09;5031144;28;20149;-78
2021/12/13 08:56:51;;;;;;;14.17;6.43;;;;;;;-1.45;100.00;97891.88;5034003;28;21735;-78
2021/12/13 08:59:23;;;;;;;14.90;7.27;;;;;;;-1.48;100.00;97881.59;5033048;28;20528;-62
2021/12/13 09:01:55;;;;;;;14.80;6.00;;;;;;;-1.47;100.00;97878.16;5032330;28;20150;-62
2021/12/13 09:04:26;;;;;;;16.30;7.30;;;;;;;-1.29;100.00;97884.72;5032574;28;20782;-62
2021/12/13 09:06:58;;;;;;;12.20;6.47;;;;;;;-1.34;100.00;97877.09;5032331;28;20047;-62
2021/12/13 09:09:26;;;;;;;14.40;7.73;;;;;;;-1.28;100.00;97883.84;5032264;28;20440;-63
2021/12/13 09:11:59;;;;;;;21.67;7.33;;;;;;;-1.27;100.00;97878.66;5033710;28;20049;-63
2021/12/13 09:14:30;;;;;;;18.10;6.43;;;;;;;-1.23;100.00;97867.44;5032180;28;20046;-62
2021/12/13 09:17:10;;;;;;;15.07;7.17;;;;;;;-1.25;100.00;97883.78;5032073;28;20038;-63
2021/12/13 09:19:49;;;;;;;20.93;8.07;;;;;;;-1.23;100.00;97879.47;5032080;28;20048;-62
2021/12/13 09:22:19;;;;;;;16.57;7.83;;;;;;;-1.12;100.00;97886.13;5015617;28;20093;-62
2021/12/13 09:24:53;;;;;;;22.03;8.97;;;;;;;-1.04;100.00;97875.66;5033149;28;20080;-62
2021/12/13 09:27:44;;;;;;;18.47;8.43;;;;;;;-0.98;100.00;97878.97;5034003;28;20846;-61
2021/12/13 09:30:25;;;;;;;13.97;6.33;;;;;;;-1.19;100.00;97870.78;5033194;28;20077;-62
2021/12/13 09:32:57;;;;;;;11.03;5.70;;;;;;;-0.98;100.00;97873.00;5027841;28;20060;-62
2021/12/13 09:35:40;;;;;;;13.77;7.60;;;;;;;-0.99;100.00;97879.00;5031170;28;20053;-62
2021/12/13 09:38:26;;;;;;;13.52;8.68;;;;;;;-0.83;100.00;97878.69;5031162;28;20099;-62
2021/12/13 09:40:59;;;;;;;13.37;5.87;;;;;;;-1.03;100.00;97885.97;5032148;28;20056;-61
2021/12/13 09:43:37;;;;;;;13.05;6.72;;;;;;;-0.94;100.00;97878.03;5032298;28;20084;-62
2021/12/13 09:46:04;;;;;;;13.10;6.97;;;;;;;-0.79;100.00;97874.34;5032007;28;20049;-62
2021/12/13 09:48:35;;;;;;;12.93;6.73;;;;;;;-0.63;100.00;97880.88;5014739;28;20041;-62
2021/12/13 09:51:07;;;;;;;11.27;5.67;;;;;;;-0.71;100.00;97882.78;5031986;28;20459;-63
2021/12/13 09:53:37;;;;;;;10.77;5.80;;;;;;;-0.64;100.00;97887.81;5032110;28;20041;-63
2021/12/13 09:56:08;;;;;;;13.67;6.03;;;;;;;-0.57;100.00;97894.50;5030594;28;20486;-62
2021/12/13 09:58:43;;;;;;;11.13;6.00;;;;;;;-0.55;100.00;97887.59;5031693;28;20453;-62
2021/12/13 10:01:15;;;;;;;11.07;5.77;;;;;;;-0.59;100.00;97890.25;5030697;28;20052;-61
2021/12/13 10:03:50;;;;;;;12.97;6.20;;;;;;;-0.65;100.00;97909.28;5034775;28;20413;-77
2021/12/13 10:06:22;;;;;;;10.07;5.43;;;;;;;-0.74;100.00;97893.16;5030557;28;20045;-77
2021/12/13 10:08:52;;;;;;;14.53;6.83;;;;;;;-0.83;100.00;97889.00;5012819;28;20053;-78
2021/12/13 10:11:23;;;;;;;13.23;6.27;;;;;;;-0.67;100.00;97895.59;5013950;28;20128;-78
2021/12/13 10:13:52;;;;;;;11.80;5.47;;;;;;;-0.98;100.00;97906.50;5028411;28;20047;-76
2021/12/13 10:16:23;;;;;;;13.47;6.33;;;;;;;-0.96;100.00;97897.00;5014321;28;20064;-69
2021/12/13 10:18:52;;;;;;;10.83;5.53;;;;;;;-1.02;100.00;97908.28;5017811;28;20046;-70
2021/12/13 10:21:24;;;;;;;14.93;6.53;;;;;;;-0.78;100.00;97900.09;5035762;28;20053;-70
2021/12/13 10:23:54;;;;;;;16.87;7.23;;;;;;;-0.94;100.00;97901.25;5017856;28;20051;-69
2021/12/13 10:26:23;;;;;;;15.77;6.67;;;;;;;-0.94;100.00;97898.66;5032922;28;20045;-62
2021/12/13 10:28:55;;;;;;;17.80;7.20;;;;;;;-0.91;100.00;97897.78;5029141;28;20077;-62
2021/12/13 10:31:28;;;;;;;20.15;9.35;;;;;;;-0.76;100.00;97884.59;5027102;28;20532;-62
2021/12/13 10:33:57;;;;;;;18.57;9.50;;;;;;;-0.85;100.00;97890.78;5030484;28;20056;-63
2021/12/13 10:36:28;;;;;;;13.57;7.03;;;;;;;-0.87;100.00;97887.38;5012634;28;20088;-63
2021/12/13 10:38:59;;;;;;;15.37;8.23;;;;;;;-0.84;100.00;97887.31;5029110;28;20180;-62
2021/12/13 10:41:31;;;;;;;15.73;7.30;;;;;;;-0.75;100.00;97889.75;5035122;28;21298;-79
2021/12/13 10:44:02;;;;;;;20.83;9.40;;;;;;;-0.79;100.00;97885.50;5030170;28;20167;-79
2021/12/13 10:46:32;;;;;;;24.00;8.63;;;;;;;-0.91;100.00;97896.03;5011987;28;20041;-78
2021/12/13 10:49:03;;;;;;;16.07;6.97;;;;;;;-0.90;100.00;97895.19;5029401;28;20069;-79
2021/12/13 10:51:36;;;;;;;15.90;7.83;;;;;;;-0.71;100.00;97887.94;5032781;28;20132;-77
2021/12/13 10:54:10;;;;;;;23.75;9.27;;;;;;;-0.64;100.00;97895.53;5013999;28;20032;-77
2021/12/13 10:56:44;;;;;;;16.42;7.60;;;;;;;-0.62;100.00;97887.75;5031377;28;20055;-79
2021/12/13 10:59:16;;;;;;;18.07;8.63;;;;;;;-0.62;100.00;97892.91;5031004;28;20120;-77
2021/12/13 11:01:50;;;;;;;21.60;9.33;;;;;;;-0.72;100.00;97891.41;5030312;28;20047;-76
2021/12/13 11:05:08;;;;;;;16.90;7.40;;;;;;;-0.80;100.00;97895.88;5029631;28;20040;-76
2021/12/13 11:08:05;;;;;;;13.93;6.00;;;;;;;-0.76;100.00;97884.59;5027373;28;20048;-76
2021/12/13 11:10:35;;;;;;;16.10;6.80;;;;;;;-0.71;100.00;97893.09;5031315;28;20100;-74
2021/12/13 11:13:04;;;;;;;16.13;7.70;;;;;;;-0.67;100.00;97894.72;5050535;28;20042;-75
2021/12/13 11:15:36;;;;;;;19.13;9.13;;;;;;;-0.81;100.00;97884.69;5032218;28;20044;-78
2021/12/13 11:18:09;;;;;;;15.20;7.00;;;;;;;-0.96;100.00;97897.00;5031941;28;20045;-77
2021/12/13 11:20:39;;;;;;;16.67;8.27;;;;;;;-0.83;100.00;97896.75;5029443;28;20112;-79
2021/12/13 11:26:37;;;;;;;19.87;9.27;;;;;;;-0.71;100.00;97890.50;5032129;28;20559;-74
2021/12/13 11:29:09;;;;;;;21.03;8.50;;;;;;;-0.82;100.00;97890.72;5031131;28;20041;-74
2021/12/13 11:32:29;;;;;;;14.07;6.77;;;;;;;-0.93;100.00;97891.78;5031639;28;20174;-72
2021/12/13 11:35:22;;;;;;;13.53;5.97;;;;;;;-1.19;100.00;97889.69;5030115;28;20033;-72
2021/12/13 11:38:04;;;;;;;13.52;6.63;;;;;;;-1.10;100.00;97884.38;5027701;28;20045;-73
2021/12/13 11:41:20;;;;;;;18.73;8.00;;;;;;;-1.11;100.00;97885.25;5027747;28;20053;-75
2021/12/13 11:44:04;;;;;;;21.17;10.53;;;;;;;-141.66;100.00;58987.19;4968211;28;20062;-65
2021/12/13 11:47:09;;;;;;;22.03;9.20;;;;;;;-141.66;100.00;58987.19;5030676;28;20038;-73
2021/12/13 11:49:44;;;;;;;;;;;;;;;-141.66;100.00;58987.19;5030003;28;20046;-73
2021/12/13 11:52:36;;;;;;;24.20;9.80;;;;;;;-141.66;100.00;58987.19;5027283;28;19928;-72
2021/12/13 11:55:53;;;;;;;22.33;9.57;;;;;;;-141.66;100.00;58987.19;5026932;28;20045;-70
2021/12/13 11:58:42;;;;;;;19.83;9.80;;;;;;;-141.66;100.00;58987.19;5027072;28;20053;-74
2021/12/13 12:01:49;;;;;;;20.43;10.37;;;;;;;-141.66;100.00;58987.19;5029307;28;20107;-74